Time;durP1;ratioP1;P1;durP2;ratioP2;P2;SDS_P1;SDS_P2;PMS_P1;PMS_P2;Temp;Humidity;BMP_temperature;BMP_pressure;BME280_temperature;BME280_humidity;BME280_pressure;Samples;Min_cycle;Max_cycle;Signal;HPM_P1;HPM_P2
2022/01/31 00:02:11;;;;;;;20.23;5.82;;;;;;;;;;5073078;28;20036;-63
2022/01/31 00:04:37;;;;;;;19.52;6.15;;;;;;;;;;5072922;28;20040;-63
2022/01/31 00:07:03;;;;;;;23.15;5.93;;;;;;;;;;5072480;28;20386;-63
2022/01/31 00:09:29;;;;;;;12.52;5.03;;;;;;;;;;5072164;28;20044;-63
2022/01/31 00:12:03;;;;;;;18.60;6.70;;;;;;;;;;5071817;28;20044;-63
2022/01/31 00:14:50;;;;;;;17.65;5.85;;;;;;;;;;5072132;28;20047;-63
2022/01/31 00:17:17;;;;;;;12.82;5.65;;;;;;;;;;5071385;28;20582;-63
2022/01/31 00:19:44;;;;;;;16.85;5.90;;;;;;;;;;5071875;28;20044;-63
2022/01/31 00:22:11;;;;;;;17.80;5.55;;;;;;;;;;5071869;28;20041;-64
2022/01/31 00:24:38;;;;;;;15.60;6.53;;;;;;;;;;5072626;28;20059;-64
2022/01/31 00:27:05;;;;;;;18.38;5.50;;;;;;;;;;5072287;28;20046;-64
2022/01/31 00:29:31;;;;;;;17.35;5.82;;;;;;;;;;5071863;28;20043;-64
2022/01/31 00:31:57;;;;;;;18.63;6.40;;;;;;;;;;5071401;28;20123;-63
2022/01/31 00:34:23;;;;;;;17.90;6.13;;;;;;;;;;5053851;28;20056;-64
2022/01/31 00:36:50;;;;;;;15.98;6.15;;;;;;;;;;5071888;28;20450;-64
2022/01/31 00:39:16;;;;;;;18.02;6.90;;;;;;;;;;5071780;28;20044;-64
2022/01/31 00:41:42;;;;;;;19.02;6.93;;;;;;;;;;5071286;28;20048;-64
2022/01/31 00:44:26;;;;;;;13.27;6.13;;;;;;;;;;5071748;28;20414;-64
2022/01/31 00:47:35;;;;;;;14.65;6.65;;;;;;;;;;5054403;28;20048;-64
2022/01/31 00:49:49;;;;;;;20.13;7.00;;;;;;;;;;5061451;28;20044;-63
2022/01/31 00:52:15;;;;;;;16.02;7.05;;;;;;;;;;5072090;28;20063;-65
2022/01/31 00:54:41;;;;;;;21.85;8.07;;;;;;;;;;5072375;28;20046;-64
2022/01/31 00:57:07;;;;;;;16.85;6.45;;;;;;;;;;5072646;28;20474;-66
2022/01/31 00:59:33;;;;;;;22.05;7.30;;;;;;;;;;5072161;28;20037;-66
2022/01/31 01:01:59;;;;;;;21.95;6.82;;;;;;;;;;5071729;28;20120;-66
2022/01/31 01:04:25;;;;;;;15.75;6.50;;;;;;;;;;5072619;28;20041;-65
2022/01/31 01:06:51;;;;;;;19.15;7.50;;;;;;;;;;5072610;28;20413;-66
2022/01/31 01:09:17;;;;;;;17.25;7.50;;;;;;;;;;5072073;28;20048;-67
2022/01/31 01:11:43;;;;;;;16.02;7.20;;;;;;;;;;5071488;28;20485;-66
2022/01/31 01:14:09;;;;;;;14.80;7.63;;;;;;;;;;5071629;28;20033;-68
2022/01/31 01:16:36;;;;;;;11.82;6.97;;;;;;;;;;5071674;28;20041;-68
2022/01/31 01:19:02;;;;;;;15.70;7.93;;;;;;;;;;5071202;28;20056;-67
2022/01/31 01:21:28;;;;;;;18.92;7.35;;;;;;;;;;5071654;28;20160;-65
2022/01/31 01:23:54;;;;;;;14.13;7.93;;;;;;;;;;5071413;28;20078;-65
2022/01/31 01:26:20;;;;;;;18.23;7.38;;;;;;;;;;5071626;28;20051;-66
2022/01/31 01:28:47;;;;;;;21.30;8.07;;;;;;;;;;5071740;28;20044;-65
2022/01/31 01:31:14;;;;;;;14.85;7.75;;;;;;;;;;5071591;28;20493;-64
2022/01/31 01:33:41;;;;;;;17.25;9.13;;;;;;;;;;5072059;28;20044;-65
2022/01/31 01:36:07;;;;;;;21.65;7.93;;;;;;;;;;5071476;28;20052;-64
2022/01/31 01:38:34;;;;;;;15.88;8.55;;;;;;;;;;5071250;28;20043;-64
2022/01/31 01:41:01;;;;;;;16.85;8.93;;;;;;;;;;5071780;28;20032;-66
2022/01/31 01:43:29;;;;;;;25.23;10.43;;;;;;;;;;5071731;28;20163;-66
2022/01/31 01:45:56;;;;;;;25.05;11.63;;;;;;;;;;5071743;28;20041;-66
2022/01/31 01:48:23;;;;;;;22.30;11.20;;;;;;;;;;5071542;28;20056;-64
2022/01/31 01:50:50;;;;;;;21.60;11.35;;;;;;;;;;5071622;28;20036;-63
2022/01/31 01:53:16;;;;;;;17.50;11.98;;;;;;;;;;5071266;28;20048;-63
2022/01/31 01:55:46;;;;;;;24.52;12.40;;;;;;;;;;5071392;28;20142;-63
2022/01/31 01:58:16;;;;;;;21.15;11.13;;;;;;;;;;5071136;28;20048;-63
2022/01/31 02:00:58;;;;;;;22.67;12.93;;;;;;;;;;5071651;28;20120;-64
2022/01/31 02:03:26;;;;;;;22.33;12.90;;;;;;;;;;5071401;28;20505;-64
2022/01/31 02:05:52;;;;;;;22.20;13.48;;;;;;;;;;5072239;28;20070;-64
2022/01/31 02:08:19;;;;;;;24.98;12.98;;;;;;;;;;5071995;28;20519;-64
2022/01/31 02:10:45;;;;;;;21.95;12.77;;;;;;;;;;5071783;28;20067;-63
2022/01/31 02:13:12;;;;;;;22.17;13.30;;;;;;;;;;5071112;28;20452;-63
2022/01/31 02:15:40;;;;;;;20.70;12.35;;;;;;;;;;5074899;28;20047;-63
2022/01/31 02:18:06;;;;;;;24.88;14.05;;;;;;;;;;5073995;28;20145;-64
2022/01/31 02:20:36;;;;;;;27.00;14.90;;;;;;;;;;5075087;28;20110;-63
2022/01/31 02:23:05;;;;;;;22.00;14.70;;;;;;;;;;5074407;28;20040;-63
2022/01/31 02:25:31;;;;;;;20.73;13.23;;;;;;;;;;5075140;28;20119;-64
2022/01/31 02:27:57;;;;;;;23.58;14.38;;;;;;;;;;5074584;28;20189;-64
2022/01/31 02:30:24;;;;;;;22.23;13.88;;;;;;;;;;5074796;28;20048;-64
2022/01/31 02:32:50;;;;;;;25.30;14.57;;;;;;;;;;5074516;28;20041;-64
2022/01/31 02:35:16;;;;;;;23.58;13.55;;;;;;;;;;5074831;28;20090;-61
2022/01/31 02:37:42;;;;;;;23.23;13.82;;;;;;;;;;5075047;28;20160;-63
2022/01/31 02:40:08;;;;;;;22.92;13.55;;;;;;;;;;5075071;28;20044;-65
2022/01/31 02:42:34;;;;;;;23.27;14.25;;;;;;;;;;5073896;28;20036;-62
2022/01/31 02:45:01;;;;;;;23.55;12.07;;;;;;;;;;5073884;28;20059;-63
2022/01/31 02:47:31;;;;;;;20.80;13.85;;;;;;;;;;5074132;28;20050;-63
2022/01/31 02:50:01;;;;;;;19.02;12.93;;;;;;;;;;5074301;28;20119;-63
2022/01/31 02:52:30;;;;;;;23.40;14.02;;;;;;;;;;5073892;28;20050;-63
2022/01/31 02:54:56;;;;;;;16.58;11.80;;;;;;;;;;5074090;28;20045;-62
2022/01/31 02:57:22;;;;;;;19.35;12.57;;;;;;;;;;5073727;28;20048;-63
2022/01/31 02:59:49;;;;;;;16.27;12.32;;;;;;;;;;5073390;28;20159;-61
2022/01/31 03:02:15;;;;;;;21.38;12.77;;;;;;;;;;5073506;28;20544;-61
2022/01/31 03:04:41;;;;;;;16.02;10.02;;;;;;;;;;5073659;28;20401;-63
2022/01/31 03:07:07;;;;;;;7.63;6.50;;;;;;;;;;5073867;28;20111;-62
2022/01/31 03:09:33;;;;;;;10.43;8.60;;;;;;;;;;5073881;28;20040;-63
2022/01/31 03:11:59;;;;;;;13.48;10.02;;;;;;;;;;5073113;28;20405;-63
2022/01/31 03:14:25;;;;;;;12.38;10.55;;;;;;;;;;5073676;28;20051;-63
2022/01/31 03:16:52;;;;;;;14.43;9.82;;;;;;;;;;5073613;28;20079;-63
2022/01/31 03:19:18;;;;;;;14.73;10.70;;;;;;;;;;5073227;28;20048;-63
2022/01/31 03:21:45;;;;;;;13.88;9.95;;;;;;;;;;5073283;28;20048;-63
2022/01/31 03:24:11;;;;;;;13.10;9.27;;;;;;;;;;5073427;28;20551;-62
2022/01/31 03:26:38;;;;;;;13.15;10.15;;;;;;;;;;5073110;28;20086;-63
2022/01/31 03:29:04;;;;;;;15.85;10.93;;;;;;;;;;5073043;28;20132;-63
2022/01/31 03:31:31;;;;;;;16.98;11.77;;;;;;;;;;5073243;28;20032;-63
2022/01/31 03:33:57;;;;;;;14.30;11.35;;;;;;;;;;5073271;28;20044;-64
2022/01/31 03:36:23;;;;;;;17.13;11.20;;;;;;;;;;5055986;28;20200;-64
2022/01/31 03:38:50;;;;;;;14.00;11.40;;;;;;;;;;5073975;28;20405;-67
2022/01/31 03:41:18;;;;;;;15.30;11.60;;;;;;;;;;5073579;28;20036;-64
2022/01/31 03:43:44;;;;;;;16.42;11.18;;;;;;;;;;5073642;28;20501;-64
2022/01/31 03:46:10;;;;;;;16.95;11.45;;;;;;;;;;5073170;28;20040;-65
2022/01/31 03:48:36;;;;;;;14.77;10.82;;;;;;;;;;5073326;28;20049;-63
2022/01/31 03:51:03;;;;;;;15.82;10.93;;;;;;;;;;5055152;28;20040;-63
2022/01/31 03:53:30;;;;;;;14.82;10.60;;;;;;;;;;5055231;28;20040;-63
2022/01/31 03:55:56;;;;;;;16.90;11.80;;;;;;;;;;5072579;28;20127;-68
2022/01/31 03:58:22;;;;;;;16.35;10.95;;;;;;;;;;5073634;28;20048;-64
2022/01/31 04:00:48;;;;;;;20.80;11.23;;;;;;;;;;5073148;28;20062;-68
2022/01/31 04:03:15;;;;;;;20.05;11.73;;;;;;;;;;5072418;28;20036;-65
2022/01/31 04:05:41;;;;;;;22.30;11.38;;;;;;;;;;5072695;28;20087;-65
2022/01/31 04:08:07;;;;;;;20.67;12.30;;;;;;;;;;5072675;28;20098;-63
2022/01/31 04:10:34;;;;;;;20.58;11.35;;;;;;;;;;5072588;28;20105;-63
2022/01/31 04:13:00;;;;;;;22.85;12.95;;;;;;;;;;5072294;28;20044;-64
2022/01/31 04:15:26;;;;;;;26.38;11.75;;;;;;;;;;5072754;28;20060;-63
2022/01/31 04:17:52;;;;;;;20.75;10.10;;;;;;;;;;5072003;28;20041;-63
2022/01/31 04:20:19;;;;;;;16.38;8.50;;;;;;;;;;5072132;28;20036;-63
2022/01/31 04:22:52;;;;;;;21.08;8.60;;;;;;;;;;5053920;28;20113;-63
2022/01/31 04:28:05;;;;;;;11.43;5.28;;;;;;;;;;5072535;28;20047;-63
2022/01/31 04:30:35;;;;;;;16.50;4.60;;;;;;;;;;5072886;28;20040;-66
2022/01/31 04:33:01;;;;;;;16.30;5.30;;;;;;;;;;5072225;28;20520;-63
2022/01/31 04:35:27;;;;;;;16.95;5.07;;;;;;;;;;5072099;28;20036;-63
2022/01/31 04:37:53;;;;;;;16.08;4.10;;;;;;;;;;5071328;28;20044;-63
2022/01/31 04:40:19;;;;;;;20.08;4.50;;;;;;;;;;5071606;28;20033;-63
2022/01/31 04:42:46;;;;;;;17.63;5.15;;;;;;;;;;5071649;28;20040;-63
2022/01/31 04:45:12;;;;;;;13.80;3.90;;;;;;;;;;5071932;28;20059;-62
2022/01/31 04:47:38;;;;;;;20.17;4.53;;;;;;;;;;5071956;28;20111;-62
2022/01/31 04:50:05;;;;;;;14.80;4.40;;;;;;;;;;5071751;28;20045;-62
2022/01/31 04:52:31;;;;;;;12.98;3.17;;;;;;;;;;5071367;28;20040;-62
2022/01/31 04:54:57;;;;;;;12.32;2.92;;;;;;;;;;5071655;28;20040;-62
2022/01/31 04:57:23;;;;;;;13.98;3.35;;;;;;;;;;5071232;28;20044;-63
2022/01/31 04:59:51;;;;;;;16.88;3.75;;;;;;;;;;5071744;28;20041;-64
2022/01/31 05:02:17;;;;;;;17.92;3.38;;;;;;;;;;5071405;28;20059;-63
2022/01/31 05:04:43;;;;;;;17.65;3.92;;;;;;;;;;5071443;28;20170;-63
2022/01/31 05:07:09;;;;;;;12.82;3.60;;;;;;;;;;5071624;28;20044;-63
2022/01/31 05:09:35;;;;;;;12.68;2.78;;;;;;;;;;5071489;28;20129;-64
2022/01/31 05:12:01;;;;;;;20.05;3.72;;;;;;;;;;5071852;28;20051;-63
2022/01/31 05:14:27;;;;;;;11.25;3.67;;;;;;;;;;5072165;28;20079;-63
2022/01/31 05:16:53;;;;;;;14.13;3.22;;;;;;;;;;5071623;28;20504;-63
2022/01/31 05:19:19;;;;;;;17.67;3.78;;;;;;;;;;5071612;28;20044;-63
2022/01/31 05:21:46;;;;;;;14.57;3.15;;;;;;;;;;5072040;28;20482;-63
2022/01/31 05:24:12;;;;;;;18.70;3.33;;;;;;;;;;5072505;28;20047;-63
2022/01/31 05:26:38;;;;;;;16.17;3.28;;;;;;;;;;5072055;28;20485;-63
2022/01/31 05:29:04;;;;;;;18.98;3.85;;;;;;;;;;5071947;28;20041;-64
2022/01/31 05:31:30;;;;;;;11.07;2.90;;;;;;;;;;5072395;28;20223;-63
2022/01/31 05:33:56;;;;;;;17.58;3.95;;;;;;;;;;5072180;28;20040;-67
2022/01/31 05:36:23;;;;;;;12.30;3.30;;;;;;;;;;5071503;28;20048;-63
2022/01/31 05:38:50;;;;;;;21.52;4.00;;;;;;;;;;5071201;28;20402;-63
2022/01/31 05:41:19;;;;;;;14.43;3.15;;;;;;;;;;5070973;28;20370;-63
2022/01/31 05:43:46;;;;;;;13.60;3.22;;;;;;;;;;5077083;28;20043;-63
2022/01/31 05:46:12;;;;;;;7.97;1.83;;;;;;;;;;5087129;28;20044;-65
2022/01/31 05:48:38;;;;;;;7.32;2.13;;;;;;;;;;5081916;28;20464;-66
2022/01/31 05:51:08;;;;;;;3.72;1.15;;;;;;;;;;5056908;28;20047;-64
2022/01/31 05:53:34;;;;;;;4.25;1.17;;;;;;;;;;5075236;28;20040;-64
2022/01/31 05:56:00;;;;;;;5.85;1.20;;;;;;;;;;5075188;28;20163;-64
2022/01/31 05:58:26;;;;;;;3.65;1.10;;;;;;;;;;5075023;28;20128;-64
2022/01/31 06:00:52;;;;;;;5.80;1.35;;;;;;;;;;5062736;28;20123;-63
2022/01/31 06:03:18;;;;;;;4.97;1.20;;;;;;;;;;5075355;28;20041;-65
2022/01/31 06:05:44;;;;;;;2.50;1.17;;;;;;;;;;5092178;28;20091;-65
2022/01/31 06:08:10;;;;;;;6.03;1.10;;;;;;;;;;5077580;28;20062;-65
2022/01/31 06:10:42;;;;;;;6.72;1.50;;;;;;;;;;5095466;28;20048;-64
2022/01/31 06:13:08;;;;;;;4.35;1.08;;;;;;;;;;5077158;28;20048;-65
2022/01/31 06:15:34;;;;;;;3.53;1.40;;;;;;;;;;5095553;28;20452;-65
2022/01/31 06:18:01;;;;;;;8.52;1.15;;;;;;;;;;5095078;28;20047;-65
2022/01/31 06:20:27;;;;;;;6.28;1.50;;;;;;;;;;5095020;28;20032;-65
2022/01/31 06:22:53;;;;;;;8.70;2.03;;;;;;;;;;5095036;28;20527;-64
2022/01/31 06:25:21;;;;;;;5.20;1.38;;;;;;;;;;5095316;28;20032;-62
2022/01/31 06:27:48;;;;;;;5.22;1.33;;;;;;;;;;5095490;28;20059;-63
2022/01/31 06:30:14;;;;;;;10.75;1.85;;;;;;;;;;5095334;28;20036;-62
2022/01/31 06:32:40;;;;;;;6.60;1.48;;;;;;;;;;5077463;28;20039;-63
2022/01/31 06:35:07;;;;;;;5.38;2.08;;;;;;;;;;5095586;28;20512;-63
2022/01/31 06:37:33;;;;;;;10.13;2.38;;;;;;;;;;5082101;28;20040;-64
2022/01/31 06:39:59;;;;;;;9.48;2.15;;;;;;;;;;5083652;28;20075;-63
2022/01/31 06:42:25;;;;;;;13.20;2.40;;;;;;;;;;5075250;28;20044;-64
2022/01/31 06:44:51;;;;;;;10.35;2.03;;;;;;;;;;5082843;28;20040;-64
2022/01/31 06:47:19;;;;;;;13.98;3.33;;;;;;;;;;5095452;28;20036;-63
2022/01/31 06:49:45;;;;;;;6.38;1.85;;;;;;;;;;5095255;28;20378;-64
2022/01/31 06:52:11;;;;;;;11.52;4.45;;;;;;;;;;5091286;28;20032;-65
2022/01/31 06:54:37;;;;;;;21.90;6.47;;;;;;;;;;5075273;28;20482;-63
2022/01/31 06:57:05;;;;;;;10.05;2.42;;;;;;;;;;5093957;28;20036;-65
2022/01/31 06:59:31;;;;;;;15.30;2.25;;;;;;;;;;5094913;28;20416;-64
2022/01/31 07:01:57;;;;;;;13.00;2.20;;;;;;;;;;5094454;28;20036;-66
2022/01/31 07:04:23;;;;;;;8.50;2.45;;;;;;;;;;5093576;28;20081;-65
2022/01/31 07:06:49;;;;;;;13.43;2.60;;;;;;;;;;5088925;28;20111;-64
2022/01/31 07:09:15;;;;;;;8.15;2.40;;;;;;;;;;5087290;28;20036;-65
2022/01/31 07:11:43;;;;;;;15.93;3.13;;;;;;;;;;5089214;28;20408;-65
2022/01/31 07:17:04;;;;;;;13.73;1.98;;;;;;;;;;5084340;28;20050;-69
2022/01/31 07:19:34;;;;;;;7.30;2.05;;;;;;;;;;5079831;28;20033;-64
2022/01/31 07:22:00;;;;;;;7.20;1.70;;;;;;;;;;5087826;28;20055;-65
2022/01/31 07:26:52;;;;;;;6.07;2.00;;;;;;;;;;5083131;28;20080;-65
2022/01/31 07:29:19;;;;;;;7.75;1.35;;;;;;;;;;5089292;28;20070;-65
2022/01/31 07:31:46;;;;;;;10.80;2.28;;;;;;;;;;5073744;28;20066;-64
2022/01/31 07:34:14;;;;;;;4.90;1.50;;;;;;;;;;5073639;28;20044;-64
2022/01/31 07:36:40;;;;;;;4.78;1.10;;;;;;;;;;5074010;28;20048;-64
2022/01/31 07:39:06;;;;;;;5.95;1.23;;;;;;;;;;5074397;28;20051;-63
2022/01/31 07:41:33;;;;;;;7.07;1.58;;;;;;;;;;5055797;28;20036;-63
2022/01/31 07:43:59;;;;;;;5.93;1.45;;;;;;;;;;5074038;28;20028;-64
2022/01/31 07:46:26;;;;;;;3.58;0.98;;;;;;;;;;5073906;28;20051;-64
2022/01/31 07:48:53;;;;;;;5.35;1.60;;;;;;;;;;5089106;28;20072;-64
2022/01/31 07:51:20;;;;;;;7.18;1.60;;;;;;;;;;5086874;28;20047;-64
2022/01/31 07:53:46;;;;;;;7.63;1.80;;;;;;;;;;5091060;28;20043;-66
2022/01/31 07:56:15;;;;;;;7.93;1.92;;;;;;;;;;5091343;28;20044;-63
2022/01/31 07:58:41;;;;;;;6.35;1.83;;;;;;;;;;5091877;28;20040;-64
2022/01/31 08:01:08;;;;;;;4.03;1.27;;;;;;;;;;5092806;28;20097;-64
2022/01/31 08:03:35;;;;;;;9.70;1.70;;;;;;;;;;5083254;28;20043;-64
2022/01/31 08:06:02;;;;;;;8.77;1.75;;;;;;;;;;5091546;28;20125;-64
2022/01/31 08:08:29;;;;;;;6.50;1.63;;;;;;;;;;5091686;28;20044;-64
2022/01/31 08:10:59;;;;;;;10.82;2.15;;;;;;;;;;5091974;28;20115;-64
2022/01/31 08:13:25;;;;;;;8.85;1.75;;;;;;;;;;5091076;28;20070;-63
2022/01/31 08:18:48;;;;;;;7.00;2.03;;;;;;;;;;5078497;28;20108;-64
2022/01/31 08:21:15;;;;;;;7.15;1.83;;;;;;;;;;5091988;28;20050;-67
2022/01/31 08:23:41;;;;;;;8.77;2.17;;;;;;;;;;5093657;28;20043;-64
2022/01/31 08:26:12;;;;;;;11.07;2.28;;;;;;;;;;5093594;28;20059;-64
2022/01/31 08:28:42;;;;;;;7.90;2.00;;;;;;;;;;5093248;28;20044;-64
2022/01/31 08:31:16;;;;;;;15.23;2.65;;;;;;;;;;5093671;28;20097;-63
2022/01/31 08:34:03;;;;;;;;;;;;;;;;;;5092894;28;20109;-64
2022/01/31 08:36:34;;;;;;;7.60;1.90;;;;;;;;;;5061257;28;19916;-64
2022/01/31 08:39:01;;;;;;;5.90;1.67;;;;;;;;;;5093254;28;20044;-64
2022/01/31 08:41:27;;;;;;;8.70;2.20;;;;;;;;;;5093049;28;20040;-64
2022/01/31 08:43:53;;;;;;;7.07;1.85;;;;;;;;;;5092981;28;20043;-64
2022/01/31 08:46:19;;;;;;;7.55;1.80;;;;;;;;;;5093245;28;20036;-62
2022/01/31 08:48:45;;;;;;;7.60;1.65;;;;;;;;;;5083669;28;20040;-64
2022/01/31 08:51:14;;;;;;;10.48;2.33;;;;;;;;;;5065529;28;20119;-63
2022/01/31 08:53:40;;;;;;;10.43;2.08;;;;;;;;;;5071115;28;20138;-64
2022/01/31 08:56:11;;;;;;;13.20;1.83;;;;;;;;;;5090120;28;20045;-63
2022/01/31 08:58:42;;;;;;;11.30;2.88;;;;;;;;;;5088184;28;20043;-64
2022/01/31 09:01:09;;;;;;;13.18;3.38;;;;;;;;;;5088196;28;20040;-64
2022/01/31 09:06:08;;;;;;;9.93;2.85;;;;;;;;;;5092246;28;20126;-66
2022/01/31 09:08:35;;;;;;;12.57;2.90;;;;;;;;;;5091361;28;20396;-65
2022/01/31 09:11:01;;;;;;;15.00;3.55;;;;;;;;;;5090409;28;20040;-66
2022/01/31 09:13:27;;;;;;;10.23;2.72;;;;;;;;;;5070557;28;20121;-67
2022/01/31 09:15:53;;;;;;;9.57;2.60;;;;;;;;;;5090906;28;20040;-67
2022/01/31 09:18:20;;;;;;;10.63;3.13;;;;;;;;;;5090863;28;20040;-66
2022/01/31 09:20:46;;;;;;;10.57;2.15;;;;;;;;;;5074055;28;20043;-65
2022/01/31 09:23:12;;;;;;;9.82;2.30;;;;;;;;;;5054835;28;20147;-66
2022/01/31 09:25:44;;;;;;;10.65;2.40;;;;;;;;;;5092262;28;20036;-65
2022/01/31 09:28:10;;;;;;;8.60;2.55;;;;;;;;;;5095161;28;20040;-65
2022/01/31 09:30:36;;;;;;;9.50;2.10;;;;;;;;;;5098036;28;20082;-69
2022/01/31 09:33:03;;;;;;;8.43;1.92;;;;;;;;;;5099176;28;20033;-66
2022/01/31 09:35:29;;;;;;;8.32;2.05;;;;;;;;;;5091782;28;20123;-64
2022/01/31 09:37:55;;;;;;;6.05;1.77;;;;;;;;;;5092953;28;20040;-64
2022/01/31 09:40:23;;;;;;;8.10;2.45;;;;;;;;;;5097058;28;20115;-66
2022/01/31 09:50:57;;;;;;;8.57;2.20;;;;;;;;;;5095262;28;20040;-65
2022/01/31 09:53:24;;;;;;;11.85;2.35;;;;;;;;;;5095165;28;20031;-64
2022/01/31 09:55:52;;;;;;;8.10;1.80;;;;;;;;;;5093839;28;20464;-66
2022/01/31 09:58:19;;;;;;;7.05;1.30;;;;;;;;;;5098549;28;20079;-65
2022/01/31 10:00:46;;;;;;;6.82;2.08;;;;;;;;;;5060816;28;20066;-65
2022/01/31 10:03:21;;;;;;;7.40;1.60;;;;;;;;;;5086839;28;20451;-65
2022/01/31 10:05:51;;;;;;;7.57;1.45;;;;;;;;;;5073327;28;20028;-64
2022/01/31 10:08:17;;;;;;;7.40;1.67;;;;;;;;;;5060063;28;20072;-65
2022/01/31 10:10:47;;;;;;;8.80;2.53;;;;;;;;;;5093940;28;20048;-65
2022/01/31 10:19:05;;;;;;;6.25;1.60;;;;;;;;;;5079210;28;20128;-65
2022/01/31 10:21:33;;;;;;;6.30;2.47;;;;;;;;;;5078742;28;20036;-63
2022/01/31 10:23:59;;;;;;;8.63;2.00;;;;;;;;;;5097933;28;20128;-62
2022/01/31 10:26:32;;;;;;;5.88;1.67;;;;;;;;;;5098973;28;20157;-64
2022/01/31 10:29:14;;;;;;;6.80;1.40;;;;;;;;;;5098900;28;20035;-64
2022/01/31 10:31:58;;;;;;;7.05;1.67;;;;;;;;;;5098101;28;20381;-65
2022/01/31 10:34:25;;;;;;;7.60;1.73;;;;;;;;;;5096311;28;20036;-63
2022/01/31 10:36:52;;;;;;;7.40;1.80;;;;;;;;;;5077404;28;20523;-63
2022/01/31 10:53:12;;;;;;;6.40;1.38;;;;;;;;;;5095397;28;20040;-65
2022/01/31 10:55:39;;;;;;;6.63;1.80;;;;;;;;;;5077124;28;20044;-64
2022/01/31 10:58:09;;;;;;;5.93;1.48;;;;;;;;;;5094539;28;20048;-65
2022/01/31 11:00:37;;;;;;;3.83;1.17;;;;;;;;;;5094943;28;20484;-64
2022/01/31 11:03:21;;;;;;;5.22;1.00;;;;;;;;;;5094270;28;20040;-65
2022/01/31 11:05:50;;;;;;;5.03;1.13;;;;;;;;;;5095418;28;20036;-66
2022/01/31 11:08:17;;;;;;;6.40;1.30;;;;;;;;;;5095000;28;20123;-64
2022/01/31 11:10:43;;;;;;;3.65;1.00;;;;;;;;;;5094961;28;20036;-64
2022/01/31 11:13:11;;;;;;;7.90;1.65;;;;;;;;;;5094529;28;20043;-66
2022/01/31 11:15:38;;;;;;;4.60;1.27;;;;;;;;;;5073531;28;20044;-65
2022/01/31 11:18:06;;;;;;;6.07;1.80;;;;;;;;;;5074952;28;20079;-65
2022/01/31 11:20:37;;;;;;;4.22;1.40;;;;;;;;;;5056748;28;20146;-65
2022/01/31 11:23:04;;;;;;;4.38;1.63;;;;;;;;;;5071992;28;20072;-68
2022/01/31 11:25:30;;;;;;;7.55;2.15;;;;;;;;;;5037290;28;20456;-68
2022/01/31 11:27:59;;;;;;;5.50;1.30;;;;;;;;;;5053101;28;20064;-64
2022/01/31 11:30:25;;;;;;;7.57;1.60;;;;;;;;;;5054362;28;20123;-65
2022/01/31 11:32:52;;;;;;;5.75;1.70;;;;;;;;;;5054026;28;20048;-64
2022/01/31 11:35:19;;;;;;;7.28;1.80;;;;;;;;;;5054442;28;20571;-67
2022/01/31 11:37:45;;;;;;;7.15;1.95;;;;;;;;;;5054270;28;20041;-65
2022/01/31 11:40:13;;;;;;;8.13;2.38;;;;;;;;;;5053832;28;20045;-65
2022/01/31 11:42:43;;;;;;;4.00;1.60;;;;;;;;;;5053373;28;20652;-66
2022/01/31 11:45:09;;;;;;;6.53;1.65;;;;;;;;;;5053691;28;20052;-65
2022/01/31 11:47:36;;;;;;;9.85;1.70;;;;;;;;;;5052306;28;20045;-66
2022/01/31 11:50:07;;;;;;;5.93;2.15;;;;;;;;;;5052732;28;20045;-65
2022/01/31 11:52:53;;;;;;;7.47;2.65;;;;;;;;;;5053281;28;20040;-65
2022/01/31 11:55:21;;;;;;;6.25;1.58;;;;;;;;;;5039765;28;20063;-66
2022/01/31 11:57:49;;;;;;;8.52;2.30;;;;;;;;;;5053510;28;20040;-65
2022/01/31 12:00:15;;;;;;;8.18;2.75;;;;;;;;;;5051641;28;20086;-65
2022/01/31 12:02:41;;;;;;;10.45;2.50;;;;;;;;;;5057813;28;20033;-65
2022/01/31 12:05:10;;;;;;;6.22;1.83;;;;;;;;;;5084610;28;20039;-66
2022/01/31 12:07:44;;;;;;;8.63;2.50;;;;;;;;;;5093599;28;20032;-66
2022/01/31 12:10:26;;;;;;;7.13;1.90;;;;;;;;;;5061494;28;20037;-65
2022/01/31 12:13:00;;;;;;;8.73;2.05;;;;;;;;;;5065086;28;20045;-66
2022/01/31 12:15:36;;;;;;;10.52;2.85;;;;;;;;;;5067476;28;20043;-66
2022/01/31 12:18:29;;;;;;;11.45;2.65;;;;;;;;;;5068486;28;20493;-66
2022/01/31 12:23:43;;;;;;;9.18;2.28;;;;;;;;;;5084863;28;20047;-66
2022/01/31 12:26:27;;;;;;;5.80;1.73;;;;;;;;;;5084848;28;20551;-66
2022/01/31 12:28:54;;;;;;;9.57;2.28;;;;;;;;;;5083094;28;20373;-66
2022/01/31 12:31:41;;;;;;;7.20;2.47;;;;;;;;;;5076484;28;20039;-65
2022/01/31 12:34:31;;;;;;;13.18;2.00;;;;;;;;;;5082849;28;20040;-65
2022/01/31 12:37:02;;;;;;;10.27;2.10;;;;;;;;;;5063597;28;20093;-65
2022/01/31 12:39:36;;;;;;;7.95;1.77;;;;;;;;;;5086818;28;20509;-66
2022/01/31 12:42:31;;;;;;;6.90;2.67;;;;;;;;;;5084123;28;20037;-66
2022/01/31 12:44:57;;;;;;;6.95;2.10;;;;;;;;;;5084355;28;20052;-65
2022/01/31 12:47:23;;;;;;;8.18;1.80;;;;;;;;;;5081606;28;20032;-64
2022/01/31 12:50:08;;;;;;;6.60;1.40;;;;;;;;;;5081975;28;20036;-64
2022/01/31 12:52:36;;;;;;;6.93;1.85;;;;;;;;;;5073626;28;20489;-65
2022/01/31 12:55:10;;;;;;;7.95;1.83;;;;;;;;;;5083143;28;20036;-65
2022/01/31 12:57:46;;;;;;;7.38;1.90;;;;;;;;;;5065185;28;20071;-65
2022/01/31 13:00:12;;;;;;;8.55;1.83;;;;;;;;;;5084542;28;20072;-65
2022/01/31 13:02:48;;;;;;;6.43;1.90;;;;;;;;;;5080982;28;20493;-65
2022/01/31 13:05:14;;;;;;;7.53;1.60;;;;;;;;;;5079654;28;20067;-66
2022/01/31 13:07:40;;;;;;;8.93;2.33;;;;;;;;;;5077011;28;20534;-65
2022/01/31 13:10:10;;;;;;;5.43;2.22;;;;;;;;;;5084135;28;20161;-64
2022/01/31 13:12:36;;;;;;;6.35;1.30;;;;;;;;;;5092128;28;20044;-65
2022/01/31 13:15:03;;;;;;;8.75;1.52;;;;;;;;;;5084902;28;20037;-66
2022/01/31 13:17:30;;;;;;;8.07;1.85;;;;;;;;;;5073197;28;20564;-64
2022/01/31 13:20:00;;;;;;;5.80;1.70;;;;;;;;;;5073229;28;20041;-64
2022/01/31 13:22:37;;;;;;;6.70;1.52;;;;;;;;;;5072665;28;20040;-65
2022/01/31 13:25:07;;;;;;;6.70;1.48;;;;;;;;;;5072988;28;20063;-65
2022/01/31 13:27:35;;;;;;;5.55;1.88;;;;;;;;;;5072939;28;20040;-65
2022/01/31 13:30:02;;;;;;;8.95;2.33;;;;;;;;;;5072124;28;20508;-65
2022/01/31 13:32:33;;;;;;;6.97;2.20;;;;;;;;;;5071885;28;20046;-62
2022/01/31 13:35:04;;;;;;;7.07;2.05;;;;;;;;;;5072310;28;20058;-66
2022/01/31 13:37:30;;;;;;;8.30;1.60;;;;;;;;;;5065957;28;20128;-65
2022/01/31 13:39:57;;;;;;;9.07;1.95;;;;;;;;;;5070912;28;20382;-65
2022/01/31 13:42:26;;;;;;;7.80;2.00;;;;;;;;;;5071074;28;20115;-65
2022/01/31 13:44:55;;;;;;;11.05;2.17;;;;;;;;;;5071888;28;20078;-65
2022/01/31 13:47:41;;;;;;;8.48;1.83;;;;;;;;;;5072092;28;20043;-65
2022/01/31 13:50:19;;;;;;;12.82;2.20;;;;;;;;;;5072106;28;20044;-66
2022/01/31 13:52:52;;;;;;;5.65;1.75;;;;;;;;;;5070532;28;20378;-66
2022/01/31 13:55:18;;;;;;;7.10;1.95;;;;;;;;;;5070679;28;20040;-65
2022/01/31 13:57:44;;;;;;;9.15;2.17;;;;;;;;;;5070743;28;20052;-65
2022/01/31 14:00:10;;;;;;;10.80;1.70;;;;;;;;;;5070493;28;20123;-65
2022/01/31 14:02:39;;;;;;;8.57;1.83;;;;;;;;;;5071136;28;20040;-65
2022/01/31 14:05:21;;;;;;;7.63;1.90;;;;;;;;;;5070957;28;20044;-65
2022/01/31 14:07:58;;;;;;;6.93;2.05;;;;;;;;;;5071627;28;20049;-64
2022/01/31 14:10:27;;;;;;;11.77;2.28;;;;;;;;;;5073893;28;20051;-65
2022/01/31 14:12:59;;;;;;;6.25;1.60;;;;;;;;;;5075235;28;20044;-65
2022/01/31 14:15:26;;;;;;;8.70;1.97;;;;;;;;;;5075279;28;20041;-64
2022/01/31 14:17:52;;;;;;;8.35;1.88;;;;;;;;;;5075396;28;20102;-64
2022/01/31 14:20:19;;;;;;;6.63;2.05;;;;;;;;;;5075129;28;20378;-64
2022/01/31 14:22:56;;;;;;;4.40;1.80;;;;;;;;;;5074487;28;20396;-65
2022/01/31 14:25:23;;;;;;;9.02;2.50;;;;;;;;;;5075582;28;20036;-65
2022/01/31 14:27:53;;;;;;;9.10;2.67;;;;;;;;;;5074469;28;20040;-65
2022/01/31 14:30:20;;;;;;;13.43;2.45;;;;;;;;;;5075289;28;20123;-65
2022/01/31 14:32:56;;;;;;;8.68;2.20;;;;;;;;;;5074981;28;20102;-66
2022/01/31 14:35:23;;;;;;;10.90;2.92;;;;;;;;;;5075270;28;20083;-65
2022/01/31 14:37:52;;;;;;;14.20;3.35;;;;;;;;;;5075514;28;20409;-63
2022/01/31 14:40:39;;;;;;;13.48;2.85;;;;;;;;;;5075147;28;20048;-64
2022/01/31 14:43:21;;;;;;;12.13;2.97;;;;;;;;;;5074664;28;20037;-65
2022/01/31 14:48:42;;;;;;;11.20;2.88;;;;;;;;;;5075227;28;20044;-65
2022/01/31 14:51:21;;;;;;;12.15;3.00;;;;;;;;;;5074951;28;20128;-64
2022/01/31 14:53:57;;;;;;;10.82;3.38;;;;;;;;;;5074786;28;20041;-65
2022/01/31 14:56:24;;;;;;;12.85;3.85;;;;;;;;;;5074868;28;20037;-65
2022/01/31 14:58:50;;;;;;;12.73;2.90;;;;;;;;;;5074444;28;20076;-65
2022/01/31 15:01:16;;;;;;;11.88;3.13;;;;;;;;;;5074591;28;20036;-65
2022/01/31 15:03:42;;;;;;;16.42;2.60;;;;;;;;;;5075309;28;20397;-64
2022/01/31 15:06:09;;;;;;;8.02;2.58;;;;;;;;;;5074844;28;20033;-67
2022/01/31 15:08:35;;;;;;;12.02;3.30;;;;;;;;;;5074259;28;20041;-66
2022/01/31 15:11:02;;;;;;;11.38;2.90;;;;;;;;;;5074077;28;20048;-64
2022/01/31 15:13:28;;;;;;;7.88;2.30;;;;;;;;;;5074161;28;20067;-64
2022/01/31 15:15:55;;;;;;;10.18;1.95;;;;;;;;;;5073993;28;20070;-65
2022/01/31 15:18:22;;;;;;;8.95;1.95;;;;;;;;;;5073859;28;20111;-65
2022/01/31 15:20:48;;;;;;;9.77;2.40;;;;;;;;;;5072640;28;20157;-66
2022/01/31 15:23:14;;;;;;;9.55;2.38;;;;;;;;;;5073031;28;20040;-66
2022/01/31 15:25:42;;;;;;;7.00;2.03;;;;;;;;;;5072885;28;20047;-67
2022/01/31 15:28:08;;;;;;;6.60;2.05;;;;;;;;;;5073676;28;20528;-65